createdAt,value
2023-07-15T00:01:15.355Z,0.8
2023-07-15T00:02:31.647Z,1.1
2023-07-15T00:03:47.942Z,1.1
2023-07-15T00:05:04.238Z,1
2023-07-15T00:06:20.544Z,1
2023-07-15T00:07:36.825Z,0.9
2023-07-15T00:08:53.119Z,1
2023-07-15T00:10:08.443Z,0.9
2023-07-15T00:11:24.736Z,1.4
2023-07-15T00:12:41.020Z,1.1
2023-07-15T00:13:57.322Z,1.3
2023-07-15T00:15:13.000Z,1
2023-07-15T00:16:29.910Z,1
2023-07-15T00:17:46.203Z,0.7
2023-07-15T00:19:02.501Z,1.5
2023-07-15T00:20:18.782Z,1.2
2023-07-15T00:21:35.090Z,1.2
2023-07-15T00:22:51.383Z,1
2023-07-15T00:24:07.678Z,0.9
2023-07-15T00:25:23.966Z,1.4
2023-07-15T00:26:39.282Z,1.2
2023-07-15T00:27:55.578Z,0.8
2023-07-15T00:29:11.866Z,1.2
2023-07-15T00:30:28.148Z,1.2
2023-07-15T00:31:44.444Z,0.9
2023-07-15T00:33:00.754Z,1.3
2023-07-15T00:34:17.031Z,1.6
2023-07-15T00:35:33.326Z,0.9
2023-07-15T00:36:49.627Z,0.9
2023-07-15T00:38:05.000Z,1
2023-07-15T00:39:22.215Z,1
2023-07-15T00:40:38.504Z,1
2023-07-15T00:41:54.813Z,1.6
2023-07-15T00:43:10.122Z,1
2023-07-15T00:44:26.408Z,1.2
2023-07-15T00:45:42.707Z,1.1
2023-07-15T00:46:58.999Z,1.4
2023-07-15T00:48:15.303Z,1.2
2023-07-15T00:49:31.579Z,1.3
2023-07-15T00:50:46.904Z,1
2023-07-15T00:52:03.193Z,1.6
2023-07-15T00:53:19.489Z,1.1
2023-07-15T00:54:35.780Z,1.2
2023-07-15T00:55:52.074Z,1.3
2023-07-15T00:57:08.379Z,1.4
2023-07-15T00:58:24.677Z,1.1
2023-07-15T00:59:40.953Z,1.3
2023-07-15T01:00:57.254Z,0.9
2023-07-15T01:02:13.551Z,1.4
2023-07-15T01:03:29.844Z,1.1
2023-07-15T01:04:46.131Z,1.2
2023-07-15T01:06:02.435Z,1
2023-07-15T01:07:17.745Z,1.1
2023-07-15T01:08:34.033Z,1
2023-07-15T01:09:50.340Z,1.2
2023-07-15T01:11:06.631Z,1.2
2023-07-15T01:12:22.913Z,1.3
2023-07-15T01:13:39.206Z,1.6
2023-07-15T01:14:55.512Z,0.9
2023-07-15T01:16:11.805Z,1.2
2023-07-15T01:17:28.088Z,1.2
2023-07-15T01:18:44.392Z,1.6
2023-07-15T01:20:00.676Z,1.2
2023-07-15T01:21:16.980Z,1.1
2023-07-15T01:22:33.277Z,1.2
2023-07-15T01:23:48.585Z,1.1
2023-07-15T01:25:04.881Z,1
2023-07-15T01:26:21.169Z,1.2
2023-07-15T01:27:37.464Z,1.7
2023-07-15T01:28:53.757Z,1.3
2023-07-15T01:30:10.059Z,1
2023-07-15T01:31:26.352Z,1.1
2023-07-15T01:32:42.642Z,1
2023-07-15T01:33:58.929Z,1.2
2023-07-15T01:35:15.232Z,0.9
2023-07-15T01:36:31.517Z,1.2
2023-07-15T01:37:47.818Z,1.2
2023-07-15T01:39:04.107Z,1.1
2023-07-15T01:40:19.424Z,1.5
2023-07-15T01:41:35.717Z,1.2
2023-07-15T01:42:52.009Z,1.5
2023-07-15T01:44:08.312Z,1.3
2023-07-15T01:45:24.601Z,1.3
2023-07-15T01:46:40.885Z,1
2023-07-15T01:47:57.179Z,1.2
2023-07-15T01:49:13.492Z,1.2
2023-07-15T01:50:29.770Z,1.2
2023-07-15T01:51:46.072Z,1.5
2023-07-15T01:53:02.355Z,1.1
2023-07-15T01:54:18.651Z,1.1
2023-07-15T01:55:34.948Z,1.4
2023-07-15T01:56:50.260Z,1.1
2023-07-15T01:58:06.549Z,1.3
2023-07-15T01:59:22.839Z,1.3
2023-07-15T02:00:39.153Z,1.2
2023-07-15T02:01:55.432Z,0.8
2023-07-15T02:03:11.728Z,0.9
2023-07-15T02:04:28.027Z,1.2
2023-07-15T02:05:44.321Z,1
2023-07-15T02:07:00.609Z,1
2023-07-15T02:08:16.909Z,1.1
2023-07-15T02:09:33.210Z,1.1
2023-07-15T02:10:49.500Z,1
2023-07-15T02:12:05.782Z,1.1
2023-07-15T02:13:21.095Z,1.3
2023-07-15T02:14:37.400Z,1.1
2023-07-15T02:15:53.693Z,1.1
2023-07-15T02:17:09.983Z,1.2
2023-07-15T02:18:26.269Z,1.5
2023-07-15T02:19:42.563Z,1.3
2023-07-15T02:20:58.873Z,0.9
2023-07-15T02:22:15.157Z,0.9
2023-07-15T02:23:31.457Z,1.3
2023-07-15T02:24:47.756Z,1.1
2023-07-15T02:26:04.048Z,1.1
2023-07-15T02:27:20.344Z,1.4
2023-07-15T02:28:36.623Z,0.9
2023-07-15T02:29:51.950Z,1.3
2023-07-15T02:31:08.232Z,1.1
2023-07-15T02:32:24.527Z,1.3
2023-07-15T02:33:40.833Z,1.2
2023-07-15T02:34:57.115Z,0.9
2023-07-15T02:36:13.407Z,0.9
2023-07-15T02:37:29.699Z,1.5
2023-07-15T02:38:45.995Z,1.2
2023-07-15T02:40:02.283Z,1.2
2023-07-15T02:41:18.592Z,1
2023-07-15T02:42:34.879Z,0.9
2023-07-15T02:43:51.166Z,0.8
2023-07-15T02:45:07.459Z,0.7
2023-07-15T02:46:22.725Z,0.9
2023-07-15T02:47:39.029Z,1
2023-07-15T02:48:55.325Z,0.9
2023-07-15T02:50:11.611Z,1
2023-07-15T02:51:27.863Z,1.2
2023-07-15T02:52:44.091Z,0.9
2023-07-15T02:54:00.403Z,1.2
2023-07-15T02:55:16.681Z,1.3
2023-07-15T02:56:32.981Z,1.2
2023-07-15T02:57:49.278Z,1.1
2023-07-15T02:59:05.573Z,1
2023-07-15T03:00:21.864Z,1
2023-07-15T03:01:38.165Z,0.7
2023-07-15T03:02:53.475Z,1.4
2023-07-15T03:04:09.778Z,1.2
2023-07-15T03:05:26.063Z,1.2
2023-07-15T03:06:42.351Z,1.1
2023-07-15T03:07:58.608Z,1.2
2023-07-15T03:09:14.855Z,1
2023-07-15T03:10:31.079Z,1
2023-07-15T03:11:47.334Z,1
2023-07-15T03:13:03.579Z,1.3
2023-07-15T03:14:19.818Z,1.3
2023-07-15T03:15:36.071Z,1.5
2023-07-15T03:16:52.296Z,0.9
2023-07-15T03:18:08.545Z,1.1
2023-07-15T03:19:23.789Z,1.5
2023-07-15T03:20:40.029Z,1
2023-07-15T03:21:56.282Z,0.9
2023-07-15T03:23:12.527Z,1.1
2023-07-15T03:24:28.769Z,0.8
2023-07-15T03:25:45.008Z,1
2023-07-15T03:27:01.244Z,1.1
2023-07-15T03:28:17.484Z,1
2023-07-15T03:29:33.733Z,1.2
2023-07-15T03:30:49.956Z,1.2
2023-07-15T03:32:06.209Z,1
2023-07-15T03:33:22.451Z,1
2023-07-15T03:34:38.683Z,0.8
2023-07-15T03:35:53.938Z,1.4
2023-07-15T03:37:10.187Z,1.3
2023-07-15T03:38:26.408Z,1.1
2023-07-15T03:39:42.665Z,1.1
2023-07-15T03:40:58.905Z,1
2023-07-15T03:42:15.149Z,0.9
2023-07-15T03:43:31.382Z,0.9
2023-07-15T03:44:47.625Z,0.8
2023-07-15T03:46:03.864Z,1
2023-07-15T03:47:20.100Z,1.5
2023-07-15T03:48:36.343Z,1
2023-07-15T03:49:52.584Z,1
2023-07-15T03:51:08.818Z,1.4
2023-07-15T03:52:24.082Z,1
2023-07-15T03:53:40.000Z,1.5
2023-07-15T03:54:56.560Z,1.2
2023-07-15T03:56:12.792Z,0.9
2023-07-15T03:57:29.033Z,1
2023-07-15T03:58:45.281Z,1.1
2023-07-15T04:00:01.519Z,0.8
2023-07-15T04:01:17.756Z,1.1
2023-07-15T04:02:33.999Z,1.3
2023-07-15T04:03:50.233Z,1.2
2023-07-15T04:05:06.480Z,0.7
2023-07-15T04:06:22.731Z,1
2023-07-15T04:07:38.961Z,1.3
2023-07-15T04:08:54.218Z,1.1
2023-07-15T04:10:10.452Z,1.1
2023-07-15T04:11:26.695Z,0.9
2023-07-15T04:12:42.947Z,1.2
2023-07-15T04:13:59.181Z,1.3
2023-07-15T04:15:15.419Z,0.9
2023-07-15T04:16:31.655Z,0.9
2023-07-15T04:17:47.890Z,1
2023-07-15T04:19:04.136Z,0.9
2023-07-15T04:20:20.389Z,0.9
2023-07-15T04:21:36.630Z,1.1
2023-07-15T04:22:52.872Z,1
2023-07-15T04:24:09.097Z,1.2
2023-07-15T04:25:24.357Z,1
2023-07-15T04:26:40.606Z,0.7
2023-07-15T04:27:56.828Z,0.8
2023-07-15T04:29:13.071Z,1.1
2023-07-15T04:30:29.311Z,1.2
2023-07-15T04:31:45.553Z,1.1
2023-07-15T04:33:01.795Z,1.3
2023-07-15T04:34:18.036Z,1.1
2023-07-15T04:35:34.271Z,1.1
2023-07-15T04:36:50.514Z,0.8
2023-07-15T04:38:06.766Z,1
2023-07-15T04:39:23.010Z,1.6
2023-07-15T04:40:39.235Z,0.7
2023-07-15T04:41:54.492Z,1.3
2023-07-15T04:43:10.741Z,0.9
2023-07-15T04:44:26.985Z,0.9
2023-07-15T04:45:43.219Z,1.2
2023-07-15T04:46:59.459Z,0.7
2023-07-15T04:48:15.695Z,1
2023-07-15T04:49:31.940Z,1.1
2023-07-15T04:50:48.189Z,1.1
2023-07-15T04:52:04.422Z,1.6
2023-07-15T04:53:20.668Z,0.8
2023-07-15T04:54:36.907Z,1.2
2023-07-15T04:55:53.144Z,1.1
2023-07-15T04:57:09.386Z,0.8
2023-07-15T04:58:24.640Z,0.9
2023-07-15T04:59:40.886Z,1.4
2023-07-15T05:00:57.128Z,1.2
2023-07-15T05:02:13.350Z,0.8
2023-07-15T05:03:29.600Z,1
2023-07-15T05:04:45.843Z,1.1
2023-07-15T05:06:01.111Z,0.8
2023-07-15T05:07:17.335Z,1.3
2023-07-15T05:08:33.585Z,1.1
2023-07-15T05:09:49.820Z,1.2
2023-07-15T05:11:06.068Z,0.8
2023-07-15T05:12:22.296Z,0.9
2023-07-15T05:13:38.535Z,0.9
2023-07-15T05:14:54.791Z,1.2
2023-07-15T05:16:11.031Z,1
2023-07-15T05:18:43.508Z,1
2023-07-15T05:19:59.738Z,1.2
2023-07-15T05:21:15.990Z,0.9
2023-07-15T05:22:31.244Z,1
2023-07-15T05:23:47.481Z,1.1
2023-07-15T05:25:03.715Z,0.7
2023-07-15T05:26:19.962Z,1.1
2023-07-15T05:27:36.203Z,0.6
2023-07-15T05:28:52.437Z,1
2023-07-15T05:30:08.693Z,0.7
2023-07-15T05:31:24.916Z,1.2
2023-07-15T05:32:41.171Z,0.8
2023-07-15T05:33:57.397Z,1
2023-07-15T05:35:13.643Z,1.3
2023-07-15T05:36:29.887Z,0.7
2023-07-15T05:37:46.114Z,0.9
2023-07-15T05:39:01.378Z,1
2023-07-15T05:40:17.621Z,0.9
2023-07-15T05:41:33.856Z,1.2
2023-07-15T05:42:50.107Z,0.9
2023-07-15T05:44:06.337Z,1
2023-07-15T05:45:22.572Z,0.8
2023-07-15T05:46:38.818Z,0.8
2023-07-15T05:47:55.063Z,1.2
2023-07-15T05:49:11.291Z,0.9
2023-07-15T05:50:27.537Z,1.2
2023-07-15T05:51:43.773Z,0.8
2023-07-15T05:53:00.024Z,0.9
2023-07-15T05:54:16.259Z,0.8
2023-07-15T05:55:31.512Z,1.3
2023-07-15T05:56:47.763Z,0.9
2023-07-15T05:58:04.001Z,0.8
2023-07-15T05:59:20.237Z,0.8
2023-07-15T06:00:36.487Z,0.9
2023-07-15T06:01:52.718Z,0.8
2023-07-15T06:03:08.955Z,1
2023-07-15T06:04:25.207Z,0.6
2023-07-15T06:05:41.428Z,0.8
2023-07-15T06:06:57.672Z,0.7
2023-07-15T06:08:13.911Z,0.8
2023-07-15T06:09:30.151Z,1
2023-07-15T06:10:46.397Z,1.1
2023-07-15T06:12:01.658Z,0.8
2023-07-15T06:13:17.892Z,0.9
2023-07-15T06:14:34.146Z,0.8
2023-07-15T06:15:50.381Z,0.9
2023-07-15T06:17:06.610Z,0.9
2023-07-15T06:18:22.867Z,1.3
2023-07-15T06:19:39.105Z,0.8
2023-07-15T06:20:55.345Z,1
2023-07-15T06:22:11.570Z,0.8
2023-07-15T06:23:27.820Z,1.1
2023-07-15T06:24:44.078Z,1
2023-07-15T06:26:00.299Z,0.9
2023-07-15T06:27:16.548Z,0.8
2023-07-15T06:28:31.809Z,0.8
2023-07-15T06:29:48.067Z,0.8
2023-07-15T06:31:04.305Z,1
2023-07-15T06:32:20.538Z,1
2023-07-15T06:33:36.773Z,1.1
2023-07-15T06:34:53.012Z,0.8
2023-07-15T06:36:09.261Z,1.1
2023-07-15T06:37:25.497Z,0.7
2023-07-15T06:38:41.740Z,1
2023-07-15T06:39:57.986Z,0.7
2023-07-15T06:41:14.225Z,0.8
2023-07-15T06:42:30.457Z,1
2023-07-15T06:43:46.693Z,0.7
2023-07-15T06:45:01.946Z,0.6
2023-07-15T06:46:18.192Z,0.8
2023-07-15T06:47:34.426Z,1.1
2023-07-15T06:48:50.682Z,1
2023-07-15T06:50:06.925Z,1.1
2023-07-15T06:51:23.164Z,1.1
2023-07-15T06:52:39.400Z,0.7
2023-07-15T06:53:55.642Z,0.9
2023-07-15T06:55:11.878Z,0.9
2023-07-15T06:56:28.122Z,0.9
2023-07-15T06:57:44.348Z,0.9
2023-07-15T06:59:00.604Z,0.9
2023-07-15T07:00:16.841Z,0.9
2023-07-15T07:01:32.099Z,0.8
2023-07-15T07:02:48.340Z,1
2023-07-15T07:04:04.570Z,0.8
2023-07-15T07:05:20.819Z,0.8
2023-07-15T07:06:37.057Z,0.9
2023-07-15T07:07:53.290Z,0.9
2023-07-15T07:09:09.541Z,0.7
2023-07-15T07:10:25.779Z,0.7
2023-07-15T07:11:42.023Z,0.7
2023-07-15T07:12:58.254Z,0.8
2023-07-15T07:14:14.501Z,0.9
2023-07-15T07:15:30.744Z,0.9
2023-07-15T07:16:46.976Z,0.9
2023-07-15T07:18:02.239Z,0.8
2023-07-15T07:19:18.474Z,1
2023-07-15T07:20:34.707Z,0.7
2023-07-15T07:21:50.957Z,0.8
2023-07-15T07:23:07.194Z,0.8
2023-07-15T07:24:23.436Z,0.6
2023-07-15T07:25:39.670Z,0.7
2023-07-15T07:26:55.903Z,0.8
2023-07-15T07:28:12.145Z,1
2023-07-15T07:29:28.397Z,1.1
2023-07-15T07:30:44.629Z,1.1
2023-07-15T07:32:00.878Z,1.2
2023-07-15T07:33:17.108Z,0.9
2023-07-15T07:34:32.380Z,0.8
2023-07-15T07:35:48.618Z,0.7
2023-07-15T07:37:04.848Z,0.8
2023-07-15T07:38:21.088Z,0.7
2023-07-15T07:39:37.334Z,1.4
2023-07-15T07:40:53.581Z,0.7
2023-07-15T07:42:09.807Z,0.7
2023-07-15T07:43:26.047Z,0.9
2023-07-15T07:44:42.285Z,0.9
2023-07-15T07:45:57.574Z,0.7
2023-07-15T07:47:14.783Z,0.8
2023-07-15T07:48:31.012Z,1
2023-07-15T07:49:47.247Z,0.9
2023-07-15T07:51:02.500Z,0.7
2023-07-15T07:52:18.751Z,0.9
2023-07-15T07:53:34.992Z,0.8
2023-07-15T07:54:51.222Z,0.8
2023-07-15T07:56:07.472Z,0.8
2023-07-15T07:57:23.717Z,0.9
2023-07-15T07:58:39.947Z,0.8
2023-07-15T07:59:56.195Z,1
2023-07-15T08:01:12.442Z,0.7
2023-07-15T08:02:28.667Z,0.7
2023-07-15T08:03:44.913Z,0.8
2023-07-15T08:05:01.159Z,0.8
2023-07-15T08:06:17.387Z,0.7
2023-07-15T08:07:32.660Z,0.6
2023-07-15T08:08:48.881Z,0.7
2023-07-15T08:10:05.127Z,0.7
2023-07-15T08:11:21.363Z,0.7
2023-07-15T08:12:37.619Z,0.7
2023-07-15T08:13:53.852Z,0.6
2023-07-15T08:15:10.090Z,0.7
2023-07-15T08:16:26.331Z,1
2023-07-15T08:17:42.575Z,0.8
2023-07-15T08:18:58.805Z,0.8
2023-07-15T08:20:15.050Z,0.7
2023-07-15T08:21:31.282Z,0.6
2023-07-15T08:22:47.536Z,0.8
2023-07-15T08:24:02.794Z,0.6
2023-07-15T08:25:19.025Z,0.6
2023-07-15T08:26:35.260Z,0.6
2023-07-15T08:27:51.506Z,0.6
2023-07-15T08:29:07.757Z,0.6
2023-07-15T08:30:23.986Z,0.7
2023-07-15T08:31:40.217Z,0.9
2023-07-15T08:32:56.460Z,0.7
2023-07-15T08:34:12.715Z,1
2023-07-15T08:35:28.938Z,0.7
2023-07-15T08:36:45.195Z,0.7
2023-07-15T08:38:01.432Z,0.7
2023-07-15T08:39:17.676Z,0.6
2023-07-15T08:40:32.914Z,0.7
2023-07-15T08:41:49.171Z,0.6
2023-07-15T08:43:05.403Z,0.7
2023-07-15T08:44:21.635Z,0.8
2023-07-15T08:45:37.876Z,0.9
2023-07-15T08:46:54.124Z,0.4
2023-07-15T08:48:10.371Z,0.7
2023-07-15T08:49:26.612Z,0.7
2023-07-15T08:50:42.847Z,0.6
2023-07-15T08:51:59.080Z,0.7
2023-07-15T08:53:15.326Z,0.9
2023-07-15T08:54:31.579Z,0.8
2023-07-15T08:55:47.815Z,0.5
2023-07-15T08:57:03.066Z,0.6
2023-07-15T08:58:19.305Z,0.9
2023-07-15T08:59:35.551Z,0.7
2023-07-15T09:00:51.775Z,0.9
2023-07-15T09:02:08.033Z,0.6
2023-07-15T09:03:24.267Z,0.9
2023-07-15T09:04:40.504Z,0.6
2023-07-15T09:05:56.754Z,0.6
2023-07-15T09:07:12.987Z,0.9
2023-07-15T09:08:29.219Z,0.6
2023-07-15T09:09:45.468Z,0.7
2023-07-15T09:11:01.698Z,0.5
2023-07-15T09:12:17.946Z,0.7
2023-07-15T09:13:33.206Z,0.5
2023-07-15T09:14:48.484Z,0.6
2023-07-15T09:16:05.686Z,0.7
2023-07-15T09:17:21.931Z,1
2023-07-15T09:18:38.165Z,0.9
2023-07-15T09:19:54.410Z,0.6
2023-07-15T09:21:09.667Z,0.6
2023-07-15T09:22:25.904Z,0.7
2023-07-15T09:23:42.153Z,0.7
2023-07-15T09:24:58.395Z,0.6
2023-07-15T09:26:14.627Z,0.5
2023-07-15T09:27:30.867Z,0.7
2023-07-15T09:28:47.099Z,0.6
2023-07-15T09:30:03.340Z,0.6
2023-07-15T09:31:19.580Z,0.9
2023-07-15T09:32:35.834Z,0.5
2023-07-15T09:33:52.069Z,0.6
2023-07-15T09:35:08.312Z,0.6
2023-07-15T09:36:24.547Z,0.8
2023-07-15T09:37:39.811Z,0.6
2023-07-15T09:38:56.041Z,0.5
2023-07-15T09:40:12.280Z,0.7
2023-07-15T09:41:28.516Z,0.7
2023-07-15T09:42:44.758Z,0.6
2023-07-15T09:44:01.001Z,0.6
2023-07-15T09:45:17.242Z,0.6
2023-07-15T09:46:33.474Z,0.7
2023-07-15T09:47:49.719Z,0.5
2023-07-15T09:49:05.962Z,0.7
2023-07-15T09:50:22.212Z,0.7
2023-07-15T09:51:38.450Z,0.8
2023-07-15T09:52:54.695Z,0.6
2023-07-15T09:54:09.943Z,0.6
2023-07-15T09:55:26.185Z,0.7
2023-07-15T09:56:42.414Z,0.7
2023-07-15T09:57:58.660Z,0.6
2023-07-15T09:59:14.893Z,0.5
2023-07-15T10:00:31.146Z,0.5
2023-07-15T10:01:47.377Z,0.7
2023-07-15T10:03:03.631Z,0.7
2023-07-15T10:04:19.866Z,0.6
2023-07-15T10:05:36.104Z,0.5
2023-07-15T10:06:52.349Z,0.6
2023-07-15T10:08:08.590Z,0.7
2023-07-15T10:09:24.830Z,0.9
2023-07-15T10:10:40.081Z,0.5
2023-07-15T10:11:56.316Z,0.6
2023-07-15T10:13:12.565Z,0.5
2023-07-15T10:14:28.797Z,0.6
2023-07-15T10:15:45.032Z,0.7
2023-07-15T10:17:01.279Z,0.5
2023-07-15T10:18:17.532Z,0.8
2023-07-15T10:19:33.765Z,0.5
2023-07-15T10:20:49.993Z,0.6
2023-07-15T10:22:06.252Z,0.5
2023-07-15T10:23:22.475Z,0.7
2023-07-15T10:24:38.719Z,0.6
2023-07-15T10:25:54.971Z,0.6
2023-07-15T10:27:10.215Z,0.5
2023-07-15T10:28:26.461Z,0.7
2023-07-15T10:29:42.699Z,0.6
2023-07-15T10:30:58.945Z,0.5
2023-07-15T10:32:15.182Z,0.6
2023-07-15T10:33:31.415Z,0.5
2023-07-15T10:34:47.663Z,0.4
2023-07-15T10:36:03.905Z,0.6
2023-07-15T10:37:20.137Z,0.6
2023-07-15T10:38:36.389Z,0.6
2023-07-15T10:39:52.630Z,0.5
2023-07-15T10:41:08.861Z,0.4
2023-07-15T10:42:25.102Z,0.5
2023-07-15T10:43:40.367Z,0.5
2023-07-15T10:44:56.604Z,0.6
2023-07-15T10:46:12.845Z,0.6
2023-07-15T10:47:29.085Z,0.6
2023-07-15T10:48:45.313Z,0.4
2023-07-15T10:50:01.555Z,0.5
2023-07-15T10:51:17.801Z,0.4
2023-07-15T10:52:34.051Z,0.7
2023-07-15T10:53:50.283Z,0.5
2023-07-15T10:55:06.518Z,0.5
2023-07-15T10:56:22.771Z,0.4
2023-07-15T10:57:38.995Z,0.6
2023-07-15T10:58:55.242Z,0.4
2023-07-15T11:00:10.494Z,0.5
2023-07-15T11:01:26.738Z,0.5
2023-07-15T11:02:42.985Z,0.5
2023-07-15T11:03:59.220Z,0.5
2023-07-15T11:05:15.463Z,0.5
2023-07-15T11:06:31.707Z,0.4
2023-07-15T11:07:47.939Z,0.6
2023-07-15T11:09:04.185Z,0.4
2023-07-15T11:10:19.469Z,0.8
2023-07-15T11:11:36.655Z,0.5
2023-07-15T11:12:52.899Z,0.7
2023-07-15T11:14:09.142Z,0.5
2023-07-15T11:15:25.385Z,0.4
2023-07-15T11:16:40.649Z,0.5
2023-07-15T11:17:56.877Z,0.5
2023-07-15T11:19:13.128Z,0.5
2023-07-15T11:20:29.356Z,0.8
2023-07-15T11:21:45.606Z,0.6
2023-07-15T11:23:01.852Z,0.5
2023-07-15T11:24:18.087Z,0.5
2023-07-15T11:25:34.323Z,0.7
2023-07-15T11:26:50.565Z,0.4
2023-07-15T11:28:06.809Z,0.4
2023-07-15T11:29:23.042Z,0.5
2023-07-15T11:30:39.279Z,0.6
2023-07-15T11:31:55.519Z,0.8
2023-07-15T11:33:10.784Z,0.4
2023-07-15T11:34:27.029Z,0.4
2023-07-15T11:35:43.256Z,0.6
2023-07-15T11:36:59.501Z,0.5
2023-07-15T11:38:15.740Z,0.6
2023-07-15T11:39:31.979Z,0.7
2023-07-15T11:40:48.235Z,0.5
2023-07-15T11:43:20.716Z,0.4
2023-07-15T11:44:36.949Z,0.5
2023-07-15T11:45:53.189Z,0.6
2023-07-15T11:47:09.434Z,0.5
2023-07-15T11:48:25.670Z,0.5
2023-07-15T11:49:40.935Z,0.5
2023-07-15T11:50:57.163Z,0.4
2023-07-15T11:52:13.398Z,0.4
2023-07-15T11:53:29.634Z,0.4
2023-07-15T11:54:45.877Z,0.4
2023-07-15T11:56:02.126Z,0.5
2023-07-15T11:57:18.374Z,0.4
2023-07-15T11:58:34.615Z,0.6
2023-07-15T11:59:50.854Z,0.4
2023-07-15T12:01:07.083Z,0.7
2023-07-15T12:02:23.324Z,0.6
2023-07-15T12:03:39.567Z,0.7
2023-07-15T12:04:55.804Z,0.5
2023-07-15T12:06:11.059Z,0.6
2023-07-15T12:07:27.314Z,0.4
2023-07-15T12:08:43.543Z,0.5
2023-07-15T12:09:59.779Z,0.5
2023-07-15T12:11:16.027Z,0.4
2023-07-15T12:12:32.257Z,0.5
2023-07-15T12:13:48.510Z,0.3
2023-07-15T12:15:04.742Z,0.4
2023-07-15T12:16:20.979Z,0.5
2023-07-15T12:17:37.230Z,0.6
2023-07-15T12:18:53.463Z,0.5
2023-07-15T12:20:09.710Z,0.4
2023-07-15T12:21:25.960Z,0.6
2023-07-15T12:22:41.207Z,0.4
2023-07-15T12:23:57.461Z,0.5
2023-07-15T12:25:13.691Z,0.6
2023-07-15T12:26:29.946Z,1.2
2023-07-15T12:27:46.178Z,0.5
2023-07-15T12:29:02.424Z,0.4
2023-07-15T12:30:18.660Z,0.5
2023-07-15T12:31:34.895Z,0.5
2023-07-15T12:32:51.140Z,0.4
2023-07-15T12:34:07.388Z,0.6
2023-07-15T12:35:23.611Z,0.5
2023-07-15T12:36:39.871Z,0.4
2023-07-15T12:37:56.112Z,0.4
2023-07-15T12:39:11.359Z,0.6
2023-07-15T12:40:27.608Z,0.5
2023-07-15T12:41:43.837Z,0.4
2023-07-15T12:43:00.088Z,0.5
2023-07-15T12:44:16.325Z,0.6
2023-07-15T12:45:32.561Z,0.4
2023-07-15T12:46:48.790Z,0.4
2023-07-15T12:48:05.033Z,0.5
2023-07-15T12:49:21.290Z,0.5
2023-07-15T12:50:37.528Z,0.5
2023-07-15T12:51:53.759Z,0.4
2023-07-15T12:53:10.009Z,0.5
2023-07-15T12:54:26.241Z,0.4
2023-07-15T12:55:41.508Z,0.6
2023-07-15T12:56:57.733Z,0.7
2023-07-15T12:58:13.989Z,0.6
2023-07-15T12:59:30.213Z,0.8
2023-07-15T13:00:46.459Z,0.5
2023-07-15T13:02:02.706Z,0.4
2023-07-15T13:03:18.941Z,0.5
2023-07-15T13:04:35.175Z,0.7
2023-07-15T13:05:51.416Z,0.5
2023-07-15T13:07:07.663Z,0.5
2023-07-15T13:08:23.894Z,0.6
2023-07-15T13:09:40.151Z,0.3
2023-07-15T13:10:56.384Z,0.6
2023-07-15T13:12:11.644Z,0.7
2023-07-15T13:13:27.872Z,0.6
2023-07-15T13:14:44.118Z,0.5
2023-07-15T13:16:00.362Z,0.7
2023-07-15T13:17:16.597Z,0.5
2023-07-15T13:18:32.840Z,0.6
2023-07-15T13:19:49.081Z,0.5
2023-07-15T13:21:05.325Z,0.5
2023-07-15T13:22:21.560Z,0.5
2023-07-15T13:23:37.811Z,0.5
2023-07-15T13:24:54.047Z,0.5
2023-07-15T13:26:10.277Z,0.5
2023-07-15T13:27:26.515Z,0.6
2023-07-15T13:28:41.777Z,0.6
2023-07-15T13:29:58.028Z,0.4
2023-07-15T13:31:14.257Z,0.4
2023-07-15T13:32:30.499Z,0.6
2023-07-15T13:33:46.735Z,0.5
2023-07-15T13:35:02.978Z,0.4
2023-07-15T13:36:18.239Z,0.6
2023-07-15T13:37:34.484Z,0.4
2023-07-15T13:38:50.734Z,0.4
2023-07-15T13:40:06.974Z,0.5
2023-07-15T13:41:23.202Z,0.5
2023-07-15T13:42:39.441Z,0.4
2023-07-15T13:43:55.683Z,0.5
2023-07-15T13:45:11.920Z,0.5
2023-07-15T13:46:28.175Z,0.5
2023-07-15T13:47:44.405Z,0.5
2023-07-15T13:49:00.654Z,0.4
2023-07-15T13:50:16.888Z,0.5
2023-07-15T13:51:33.120Z,0.6
2023-07-15T13:52:48.380Z,0.5
2023-07-15T13:54:04.628Z,0.4
2023-07-15T13:55:20.857Z,0.6
2023-07-15T13:56:37.098Z,0.6
2023-07-15T13:57:53.343Z,0.7
2023-07-15T13:59:09.591Z,0.4
2023-07-15T14:00:25.825Z,0.6
2023-07-15T14:01:42.067Z,0.4
2023-07-15T14:02:58.310Z,0.3
2023-07-15T14:04:14.548Z,0.5
2023-07-15T14:05:30.796Z,0.5
2023-07-15T14:06:47.027Z,0.6
2023-07-15T14:08:03.258Z,0.5
2023-07-15T14:10:34.766Z,0.5
2023-07-15T14:11:51.001Z,0.6
2023-07-15T14:13:07.241Z,0.5
2023-07-15T14:14:23.491Z,0.7
2023-07-15T14:15:39.737Z,0.4
2023-07-15T14:16:55.980Z,0.5
2023-07-15T14:18:12.205Z,0.4
2023-07-15T14:19:28.453Z,0.4
2023-07-15T14:20:44.690Z,0.3
2023-07-15T14:22:00.919Z,0.5
2023-07-15T14:23:17.173Z,0.4
2023-07-15T14:24:33.406Z,0.5
2023-07-15T14:25:48.676Z,0.5
2023-07-15T14:27:04.914Z,0.4
2023-07-15T14:28:21.146Z,0.5
2023-07-15T14:29:37.382Z,0.6
2023-07-15T14:30:53.620Z,0.5
2023-07-15T14:32:09.861Z,0.4
2023-07-15T14:33:26.105Z,0.6
2023-07-15T14:34:42.350Z,0.6
2023-07-15T14:35:58.592Z,0.4
2023-07-15T14:37:14.830Z,0.6
2023-07-15T14:38:31.062Z,0.4
2023-07-15T14:39:47.303Z,1
2023-07-15T14:41:03.540Z,0.5
2023-07-15T14:42:18.808Z,0.4
2023-07-15T14:43:35.049Z,0.3
2023-07-15T14:44:51.281Z,0.7
2023-07-15T14:46:07.534Z,0.6
2023-07-15T14:47:23.775Z,0.5
2023-07-15T14:48:40.014Z,0.6
2023-07-15T14:49:56.248Z,0.5
2023-07-15T14:51:12.493Z,0.5
2023-07-15T14:52:28.721Z,0.6
2023-07-15T14:53:44.962Z,0.6
2023-07-15T14:55:01.208Z,0.5
2023-07-15T14:56:17.441Z,0.4
2023-07-15T14:57:33.686Z,0.6
2023-07-15T14:58:48.951Z,0.5
2023-07-15T15:00:05.187Z,0.5
2023-07-15T15:01:21.437Z,0.4
2023-07-15T15:02:37.659Z,0.4
2023-07-15T15:03:53.901Z,0.7
2023-07-15T15:05:10.153Z,0.5
2023-07-15T15:06:26.390Z,0.5
2023-07-15T15:07:42.622Z,0.5
2023-07-15T15:08:58.878Z,0.5
2023-07-15T15:10:15.120Z,0.5
2023-07-15T15:11:31.351Z,0.5
2023-07-15T15:12:47.589Z,0.5
2023-07-15T15:14:03.822Z,0.5
2023-07-15T15:15:19.086Z,0.4
2023-07-15T15:16:35.324Z,0.5
2023-07-15T15:17:51.560Z,0.6
2023-07-15T15:19:07.807Z,0.4
2023-07-15T15:20:24.052Z,0.6
2023-07-15T15:21:40.299Z,0.5
2023-07-15T15:22:56.536Z,0.6
2023-07-15T15:24:12.768Z,0.4
2023-07-15T15:25:29.008Z,0.6
2023-07-15T15:26:45.260Z,0.4
2023-07-15T15:28:01.501Z,0.5
2023-07-15T15:29:17.730Z,0.4
2023-07-15T15:30:33.968Z,0.6
2023-07-15T15:31:49.228Z,0.5
2023-07-15T15:33:05.470Z,0.4
2023-07-15T15:34:21.712Z,0.4
2023-07-15T15:35:37.955Z,0.5
2023-07-15T15:36:54.196Z,0.7
2023-07-15T15:38:10.421Z,0.7
2023-07-15T15:39:26.679Z,0.4
2023-07-15T15:40:42.922Z,0.6
2023-07-15T15:41:59.157Z,0.3
2023-07-15T15:43:15.382Z,0.5
2023-07-15T15:44:31.623Z,0.5
2023-07-15T15:45:47.864Z,0.4
2023-07-15T15:47:04.103Z,0.4
2023-07-15T15:48:19.363Z,0.5
2023-07-15T15:49:35.600Z,0.3
2023-07-15T15:50:51.849Z,0.3
2023-07-15T15:52:08.100Z,0.3
2023-07-15T15:53:24.338Z,0.4
2023-07-15T15:54:40.580Z,0.7
2023-07-15T15:55:56.808Z,0.4
2023-07-15T15:57:13.059Z,0.6
2023-07-15T15:58:29.288Z,0.6
2023-07-15T15:59:45.533Z,0.4
2023-07-15T16:01:01.775Z,0.5
2023-07-15T16:02:18.023Z,0.7
2023-07-15T16:03:34.246Z,0.7
2023-07-15T16:04:49.489Z,0.5
2023-07-15T16:06:05.739Z,0.7
2023-07-15T16:07:21.975Z,0.5
2023-07-15T16:08:38.217Z,0.4
2023-07-15T16:09:54.461Z,0.4
2023-07-15T16:11:10.695Z,0.6
2023-07-15T16:12:26.945Z,0.4
2023-07-15T16:13:43.176Z,0.8
2023-07-15T16:14:59.422Z,0.5
2023-07-15T16:16:15.652Z,0.7
2023-07-15T16:17:31.912Z,0.7
2023-07-15T16:18:48.141Z,0.5
2023-07-15T16:20:04.378Z,0.5
2023-07-15T16:21:19.630Z,0.5
2023-07-15T16:22:35.876Z,0.6
2023-07-15T16:23:52.116Z,0.9
2023-07-15T16:25:08.351Z,0.6
2023-07-15T16:26:24.591Z,0.7
2023-07-15T16:27:40.851Z,0.5
2023-07-15T16:28:57.074Z,0.5
2023-07-15T16:30:13.312Z,0.6
2023-07-15T16:31:29.561Z,0.5
2023-07-15T16:32:45.804Z,0.4
2023-07-15T16:34:02.040Z,0.6
2023-07-15T16:35:18.290Z,0.6
2023-07-15T16:36:34.527Z,0.5
2023-07-15T16:37:49.779Z,0.4
2023-07-15T16:39:06.018Z,0.6
2023-07-15T16:40:22.267Z,0.5
2023-07-15T16:41:38.504Z,0.5
2023-07-15T16:42:54.745Z,0.6
2023-07-15T16:44:10.992Z,0.7
2023-07-15T16:45:27.228Z,0.5
2023-07-15T16:46:43.453Z,0.5
2023-07-15T16:47:59.699Z,0.6
2023-07-15T16:49:15.942Z,0.5
2023-07-15T16:50:32.188Z,0.4
2023-07-15T16:51:48.413Z,0.4
2023-07-15T16:53:04.669Z,0.7
2023-07-15T16:54:19.923Z,0.6
2023-07-15T16:55:36.152Z,0.5
2023-07-15T16:56:52.398Z,0.5
2023-07-15T16:58:08.635Z,0.7
2023-07-15T16:59:24.876Z,0.5
2023-07-15T17:00:41.119Z,0.5
2023-07-15T17:01:57.351Z,0.5
2023-07-15T17:03:13.597Z,0.4
2023-07-15T17:04:29.836Z,0.6
2023-07-15T17:05:46.079Z,0.6
2023-07-15T17:07:02.319Z,0.5
2023-07-15T17:08:18.557Z,0.7
2023-07-15T17:09:34.806Z,0.4
2023-07-15T17:10:50.052Z,0.4
2023-07-15T17:12:06.294Z,0.6
2023-07-15T17:13:22.531Z,0.4
2023-07-15T17:14:38.777Z,0.5
2023-07-15T17:15:55.021Z,0.5
2023-07-15T17:17:11.256Z,0.6
2023-07-15T17:18:27.492Z,0.5
2023-07-15T17:19:43.748Z,0.4
2023-07-15T17:20:59.978Z,0.5
2023-07-15T17:22:16.216Z,0.5
2023-07-15T17:23:32.456Z,0.6
2023-07-15T17:24:48.713Z,0.7
2023-07-15T17:26:04.951Z,0.4
2023-07-15T17:27:20.205Z,0.6
2023-07-15T17:28:36.431Z,0.6
2023-07-15T17:29:52.674Z,0.4
2023-07-15T17:31:08.929Z,0.4
2023-07-15T17:32:25.160Z,0.6
2023-07-15T17:33:41.391Z,0.6
2023-07-15T17:34:57.653Z,0.4
2023-07-15T17:36:13.883Z,0.4
2023-07-15T17:37:30.118Z,0.4
2023-07-15T17:38:46.368Z,0.5